sensor_id;sensor_type;location;lat;lon;timestamp;pressure;altitude;pressure_sealevel;temperature;humidity
43217;BME280;60511;42.686;23.300;2023-02-22T00:00:02;94683.63;;;22.94;29.42
43217;BME280;60511;42.686;23.300;2023-02-22T00:02:08;94690.22;;;22.96;29.56
43217;BME280;60511;42.686;23.300;2023-02-22T00:04:24;94699.13;;;22.97;29.62
43217;BME280;60511;42.686;23.300;2023-02-22T00:06:24;94711.13;;;22.99;29.71
43217;BME280;60511;42.686;23.300;2023-02-22T00:08:27;94692.44;;;22.91;29.88
43217;BME280;60511;42.686;23.300;2023-02-22T00:10:31;94700.59;;;22.94;29.64
43217;BME280;60511;42.686;23.300;2023-02-22T00:12:31;94566.84;;;22.17;29.79
43217;BME280;60511;42.686;23.300;2023-02-22T00:14:31;94697.66;;;22.99;29.43
43217;BME280;60511;42.686;23.300;2023-02-22T00:16:32;94690.59;;;22.95;29.51
43217;BME280;60511;42.686;23.300;2023-02-22T00:18:33;94695.63;;;22.96;29.58
43217;BME280;60511;42.686;23.300;2023-02-22T00:20:33;94678.94;;;22.91;29.63
43217;BME280;60511;42.686;23.300;2023-02-22T00:22:33;94682.84;;;22.93;29.52
43217;BME280;60511;42.686;23.300;2023-02-22T00:24:34;94690.22;;;22.96;29.83
43217;BME280;60511;42.686;23.300;2023-02-22T00:26:35;94692.84;;;22.93;29.62
43217;BME280;60511;42.686;23.300;2023-02-22T00:28:38;94694.84;;;22.96;29.60
43217;BME280;60511;42.686;23.300;2023-02-22T00:30:38;94697.22;;;22.97;29.42
43217;BME280;60511;42.686;23.300;2023-02-22T00:32:42;94669.44;;;22.81;29.50
43217;BME280;60511;42.686;23.300;2023-02-22T00:34:43;94686.22;;;22.90;29.17
43217;BME280;60511;42.686;23.300;2023-02-22T00:36:47;94680.22;;;22.81;29.43
43217;BME280;60511;42.686;23.300;2023-02-22T00:38:47;94660.69;;;22.72;29.73
43217;BME280;60511;42.686;23.300;2023-02-22T00:40:48;94658.44;;;22.74;29.52
43217;BME280;60511;42.686;23.300;2023-02-22T00:42:49;94683.44;;;22.86;29.62
43217;BME280;60511;42.686;23.300;2023-02-22T00:44:49;94662.88;;;22.82;29.47
43217;BME280;60511;42.686;23.300;2023-02-22T00:46:50;94641.75;;;22.68;29.21
43217;BME280;60511;42.686;23.300;2023-02-22T00:48:50;94665.25;;;22.83;29.32
43217;BME280;60511;42.686;23.300;2023-02-22T00:50:51;94677.25;;;22.86;29.26
43217;BME280;60511;42.686;23.300;2023-02-22T00:52:55;94664.81;;;22.81;29.34
43217;BME280;60511;42.686;23.300;2023-02-22T00:54:56;94677.25;;;22.86;29.32
43217;BME280;60511;42.686;23.300;2023-02-22T00:56:57;94564.91;;;22.18;29.50
43217;BME280;60511;42.686;23.300;2023-02-22T00:58:57;94558.38;;;22.19;29.53
43217;BME280;60511;42.686;23.300;2023-02-22T01:00:58;94665.59;;;22.82;29.78
43217;BME280;60511;42.686;23.300;2023-02-22T01:02:58;94661.88;;;22.86;29.07
43217;BME280;60511;42.686;23.300;2023-02-22T01:04:59;94662.63;;;22.87;29.20
43217;BME280;60511;42.686;23.300;2023-02-22T01:07:00;94647.06;;;22.80;29.50
43217;BME280;60511;42.686;23.300;2023-02-22T01:09:01;94668.91;;;22.91;29.11
43217;BME280;60511;42.686;23.300;2023-02-22T01:11:02;94649.56;;;22.73;29.17
43217;BME280;60511;42.686;23.300;2023-02-22T01:13:02;94666.56;;;22.90;29.20
43217;BME280;60511;42.686;23.300;2023-02-22T01:15:09;94662.97;;;22.85;29.94
43217;BME280;60511;42.686;23.300;2023-02-22T01:17:10;94632.25;;;22.74;29.08
43217;BME280;60511;42.686;23.300;2023-02-22T01:19:10;94646.34;;;22.83;29.57
43217;BME280;60511;42.686;23.300;2023-02-22T01:21:11;94645.91;;;22.81;29.41
43217;BME280;60511;42.686;23.300;2023-02-22T01:23:12;94653.78;;;22.86;29.26
43217;BME280;60511;42.686;23.300;2023-02-22T01:25:18;94652.19;;;22.85;29.18
43217;BME280;60511;42.686;23.300;2023-02-22T01:27:19;94645.56;;;22.83;28.94
43217;BME280;60511;42.686;23.300;2023-02-22T01:29:20;94654.78;;;22.82;29.29
43217;BME280;60511;42.686;23.300;2023-02-22T01:31:20;94648.81;;;22.89;29.38
43217;BME280;60511;42.686;23.300;2023-02-22T01:33:23;94642.09;;;22.82;29.53
43217;BME280;60511;42.686;23.300;2023-02-22T01:35:27;94637.91;;;22.85;29.33
43217;BME280;60511;42.686;23.300;2023-02-22T01:37:27;94637.56;;;22.86;29.25
43217;BME280;60511;42.686;23.300;2023-02-22T01:39:28;94629.19;;;22.76;29.18
43217;BME280;60511;42.686;23.300;2023-02-22T01:41:28;94633.66;;;22.68;29.49
43217;BME280;60511;42.686;23.300;2023-02-22T01:43:30;94649.16;;;22.87;29.20
43217;BME280;60511;42.686;23.300;2023-02-22T01:47:34;94558.81;;;22.33;28.99
43217;BME280;60511;42.686;23.300;2023-02-22T01:49:39;94606.47;;;22.61;29.40
43217;BME280;60511;42.686;23.300;2023-02-22T01:51:44;94646.00;;;22.85;29.15
43217;BME280;60511;42.686;23.300;2023-02-22T01:53:54;94634.59;;;22.76;29.71
43217;BME280;60511;42.686;23.300;2023-02-22T01:55:57;94646.25;;;22.80;31.16
43217;BME280;60511;42.686;23.300;2023-02-22T01:57:57;94627.44;;;22.67;29.82
43217;BME280;60511;42.686;23.300;2023-02-22T02:00:03;94633.38;;;22.73;30.17
43217;BME280;60511;42.686;23.300;2023-02-22T02:02:10;94663.75;;;22.86;32.96
43217;BME280;60511;42.686;23.300;2023-02-22T02:04:16;94624.03;;;22.11;37.52
43217;BME280;60511;42.686;23.300;2023-02-22T02:06:18;94660.19;;;22.10;36.07
43217;BME280;60511;42.686;23.300;2023-02-22T02:10:23;94655.75;;;22.01;38.01
43217;BME280;60511;42.686;23.300;2023-02-22T02:12:24;94659.91;;;21.99;36.07
43217;BME280;60511;42.686;23.300;2023-02-22T02:14:25;94640.59;;;21.97;37.77
43217;BME280;60511;42.686;23.300;2023-02-22T02:16:43;94634.56;;;21.87;37.87
43217;BME280;60511;42.686;23.300;2023-02-22T02:18:44;94657.59;;;22.13;36.13
43217;BME280;60511;42.686;23.300;2023-02-22T02:21:02;94653.44;;;21.75;38.60
43217;BME280;60511;42.686;23.300;2023-02-22T02:23:22;94638.47;;;21.62;39.46
43217;BME280;60511;42.686;23.300;2023-02-22T02:30:27;94668.41;;;21.60;42.63
43217;BME280;60511;42.686;23.300;2023-02-22T02:32:50;94619.22;;;21.11;43.08
43217;BME280;60511;42.686;23.300;2023-02-22T02:35:16;94668.53;;;21.27;43.12
43217;BME280;60511;42.686;23.300;2023-02-22T02:42:07;94678.28;;;21.32;42.62
43217;BME280;60511;42.686;23.300;2023-02-22T02:44:35;94637.22;;;21.35;41.11
43217;BME280;60511;42.686;23.300;2023-02-22T02:46:45;94670.00;;;21.49;43.03
43217;BME280;60511;42.686;23.300;2023-02-22T02:48:57;94644.66;;;21.13;42.50
43217;BME280;60511;42.686;23.300;2023-02-22T02:51:00;94672.13;;;21.31;41.36
43217;BME280;60511;42.686;23.300;2023-02-22T02:53:04;94690.63;;;21.33;43.06
43217;BME280;60511;42.686;23.300;2023-02-22T02:55:06;94699.09;;;21.43;42.77
43217;BME280;60511;42.686;23.300;2023-02-22T02:57:10;94673.56;;;21.41;39.39
43217;BME280;60511;42.686;23.300;2023-02-22T02:59:37;94679.31;;;21.27;42.88
43217;BME280;60511;42.686;23.300;2023-02-22T03:06:38;94663.94;;;21.52;41.16
43217;BME280;60511;42.686;23.300;2023-02-22T03:11:39;94667.28;;;21.37;41.52
43217;BME280;60511;42.686;23.300;2023-02-22T03:16:33;94688.06;;;21.49;40.87
43217;BME280;60511;42.686;23.300;2023-02-22T03:19:04;94679.31;;;21.39;40.24
43217;BME280;60511;42.686;23.300;2023-02-22T03:25:32;94681.13;;;21.48;41.38
43217;BME280;60511;42.686;23.300;2023-02-22T03:27:38;94680.75;;;21.49;40.10
43217;BME280;60511;42.686;23.300;2023-02-22T03:29:43;94682.78;;;21.52;43.36
43217;BME280;60511;42.686;23.300;2023-02-22T03:31:50;94648.34;;;21.21;42.10
43217;BME280;60511;42.686;23.300;2023-02-22T03:33:55;94644.19;;;21.23;41.54
43217;BME280;60511;42.686;23.300;2023-02-22T03:36:01;94649.34;;;21.16;42.23
43217;BME280;60511;42.686;23.300;2023-02-22T03:38:05;94590.72;;;20.97;39.84
43217;BME280;60511;42.686;23.300;2023-02-22T03:40:10;94649.69;;;21.52;41.92
43217;BME280;60511;42.686;23.300;2023-02-22T03:42:17;94658.88;;;21.14;42.17
43217;BME280;60511;42.686;23.300;2023-02-22T03:44:23;94685.03;;;21.25;43.23
43217;BME280;60511;42.686;23.300;2023-02-22T03:46:26;94641.06;;;20.97;43.70
43217;BME280;60511;42.686;23.300;2023-02-22T03:50:46;94663.03;;;21.11;43.22
43217;BME280;60511;42.686;23.300;2023-02-22T03:52:48;94683.34;;;21.21;43.19
43217;BME280;60511;42.686;23.300;2023-02-22T03:54:50;94676.25;;;21.16;45.59
43217;BME280;60511;42.686;23.300;2023-02-22T03:56:57;94663.63;;;21.04;44.91
43217;BME280;60511;42.686;23.300;2023-02-22T03:59:05;94678.28;;;21.07;44.28
43217;BME280;60511;42.686;23.300;2023-02-22T04:01:06;94675.69;;;20.98;42.83
43217;BME280;60511;42.686;23.300;2023-02-22T04:03:07;94677.53;;;21.19;43.21
43217;BME280;60511;42.686;23.300;2023-02-22T04:05:07;94666.50;;;21.24;42.99
43217;BME280;60511;42.686;23.300;2023-02-22T04:07:07;94672.34;;;21.14;43.02
43217;BME280;60511;42.686;23.300;2023-02-22T04:09:08;94622.22;;;20.72;44.86
43217;BME280;60511;42.686;23.300;2023-02-22T04:11:08;94654.66;;;21.13;43.33
43217;BME280;60511;42.686;23.300;2023-02-22T04:13:09;94665.63;;;21.20;44.10
43217;BME280;60511;42.686;23.300;2023-02-22T04:15:12;94679.66;;;21.25;43.69
43217;BME280;60511;42.686;23.300;2023-02-22T04:17:14;94667.75;;;21.02;43.58
43217;BME280;60511;42.686;23.300;2023-02-22T04:19:14;94671.00;;;21.07;44.31
43217;BME280;60511;42.686;23.300;2023-02-22T04:21:15;94635.00;;;21.12;41.88
43217;BME280;60511;42.686;23.300;2023-02-22T04:23:15;94667.75;;;21.26;42.07
43217;BME280;60511;42.686;23.300;2023-02-22T04:25:16;94639.03;;;21.18;41.75
43217;BME280;60511;42.686;23.300;2023-02-22T04:27:16;94680.09;;;21.27;41.47
43217;BME280;60511;42.686;23.300;2023-02-22T04:29:16;94691.19;;;21.38;42.43
43217;BME280;60511;42.686;23.300;2023-02-22T04:31:17;94674.81;;;21.06;44.14
43217;BME280;60511;42.686;23.300;2023-02-22T04:33:17;94674.25;;;21.13;42.46
43217;BME280;60511;42.686;23.300;2023-02-22T04:35:18;94692.31;;;21.37;43.16
43217;BME280;60511;42.686;23.300;2023-02-22T04:37:18;94688.75;;;21.45;42.96
43217;BME280;60511;42.686;23.300;2023-02-22T04:39:18;94682.53;;;21.20;43.12
43217;BME280;60511;42.686;23.300;2023-02-22T04:41:19;94682.22;;;21.34;41.52
43217;BME280;60511;42.686;23.300;2023-02-22T04:43:20;94641.72;;;20.94;42.85
43217;BME280;60511;42.686;23.300;2023-02-22T04:45:21;94688.28;;;21.31;42.43
43217;BME280;60511;42.686;23.300;2023-02-22T04:47:21;94681.19;;;21.39;39.21
43217;BME280;60511;42.686;23.300;2023-02-22T04:49:22;94632.75;;;20.90;41.76
43217;BME280;60511;42.686;23.300;2023-02-22T04:51:23;94680.88;;;21.28;44.04
43217;BME280;60511;42.686;23.300;2023-02-22T04:53:23;94648.91;;;21.14;39.28
43217;BME280;60511;42.686;23.300;2023-02-22T04:55:24;94636.34;;;20.94;40.73
43217;BME280;60511;42.686;23.300;2023-02-22T04:57:24;94679.97;;;20.99;44.47
43217;BME280;60511;42.686;23.300;2023-02-22T04:59:26;94675.91;;;20.93;43.53
43217;BME280;60511;42.686;23.300;2023-02-22T05:01:33;94632.69;;;20.53;45.76
43217;BME280;60511;42.686;23.300;2023-02-22T05:03:36;94693.72;;;20.85;46.24
43217;BME280;60511;42.686;23.300;2023-02-22T05:05:37;94635.88;;;20.79;43.97
43217;BME280;60511;42.686;23.300;2023-02-22T05:07:37;94674.78;;;20.82;46.55
43217;BME280;60511;42.686;23.300;2023-02-22T05:09:37;94703.69;;;20.73;48.00
43217;BME280;60511;42.686;23.300;2023-02-22T05:11:38;94694.59;;;20.77;44.96
43217;BME280;60511;42.686;23.300;2023-02-22T05:13:38;94678.19;;;20.58;46.64
43217;BME280;60511;42.686;23.300;2023-02-22T05:15:39;94632.34;;;20.09;46.62
43217;BME280;60511;42.686;23.300;2023-02-22T05:17:39;94690.56;;;20.71;42.72
43217;BME280;60511;42.686;23.300;2023-02-22T05:19:39;94709.97;;;20.77;44.67
43217;BME280;60511;42.686;23.300;2023-02-22T05:21:41;94702.63;;;21.11;43.13
43217;BME280;60511;42.686;23.300;2023-02-22T05:23:41;94706.75;;;21.08;46.20
43217;BME280;60511;42.686;23.300;2023-02-22T05:25:42;94705.19;;;20.95;43.65
43217;BME280;60511;42.686;23.300;2023-02-22T05:27:42;94718.84;;;20.90;45.52
43217;BME280;60511;42.686;23.300;2023-02-22T05:29:43;94708.09;;;21.02;43.99
43217;BME280;60511;42.686;23.300;2023-02-22T05:31:43;94688.59;;;20.93;43.64
43217;BME280;60511;42.686;23.300;2023-02-22T05:33:43;94689.50;;;20.97;44.72
43217;BME280;60511;42.686;23.300;2023-02-22T05:35:44;94714.97;;;21.24;41.52
43217;BME280;60511;42.686;23.300;2023-02-22T05:37:45;94719.44;;;21.20;45.18
43217;BME280;60511;42.686;23.300;2023-02-22T05:39:45;94721.69;;;21.30;44.44
43217;BME280;60511;42.686;23.300;2023-02-22T05:41:46;94731.88;;;21.12;45.66
43217;BME280;60511;42.686;23.300;2023-02-22T05:43:46;94724.97;;;21.23;43.06
43217;BME280;60511;42.686;23.300;2023-02-22T05:45:47;94725.16;;;21.18;43.72
43217;BME280;60511;42.686;23.300;2023-02-22T05:47:48;94722.03;;;21.16;43.78
43217;BME280;60511;42.686;23.300;2023-02-22T05:49:48;94730.09;;;21.16;44.31
43217;BME280;60511;42.686;23.300;2023-02-22T05:51:49;94715.41;;;21.14;41.76
43217;BME280;60511;42.686;23.300;2023-02-22T05:53:50;94722.47;;;21.18;43.96
43217;BME280;60511;42.686;23.300;2023-02-22T05:55:51;94725.84;;;21.27;44.84
43217;BME280;60511;42.686;23.300;2023-02-22T05:57:52;94736.84;;;21.35;43.75
43217;BME280;60511;42.686;23.300;2023-02-22T05:59:53;94686.78;;;20.84;45.55
43217;BME280;60511;42.686;23.300;2023-02-22T06:01:53;94712.16;;;21.20;42.85
43217;BME280;60511;42.686;23.300;2023-02-22T06:03:53;94692.53;;;21.07;44.45
43217;BME280;60511;42.686;23.300;2023-02-22T06:05:54;94725.97;;;21.31;42.30
43217;BME280;60511;42.686;23.300;2023-02-22T06:07:55;94658.88;;;20.89;42.00
43217;BME280;60511;42.686;23.300;2023-02-22T06:09:56;94750.31;;;21.35;43.35
43217;BME280;60511;42.686;23.300;2023-02-22T06:11:56;94618.78;;;20.51;44.99
43217;BME280;60511;42.686;23.300;2023-02-22T06:13:56;94752.19;;;21.10;44.95
43217;BME280;60511;42.686;23.300;2023-02-22T06:15:57;94715.72;;;21.00;43.94
43217;BME280;60511;42.686;23.300;2023-02-22T06:17:58;94723.16;;;21.27;42.68
43217;BME280;60511;42.686;23.300;2023-02-22T06:19:59;94725.53;;;21.17;44.49
43217;BME280;60511;42.686;23.300;2023-02-22T06:21:59;94738.28;;;21.20;44.28
43217;BME280;60511;42.686;23.300;2023-02-22T06:24:02;94735.94;;;21.18;45.51
43217;BME280;60511;42.686;23.300;2023-02-22T06:26:03;94716.31;;;21.18;44.54
43217;BME280;60511;42.686;23.300;2023-02-22T06:28:04;94708.94;;;21.27;44.84
43217;BME280;60511;42.686;23.300;2023-02-22T06:30:05;94747.53;;;21.68;41.83
43217;BME280;60511;42.686;23.300;2023-02-22T06:32:05;94709.81;;;21.68;40.05
43217;BME280;60511;42.686;23.300;2023-02-22T06:34:05;94710.13;;;21.91;38.11
43217;BME280;60511;42.686;23.300;2023-02-22T06:36:06;94739.69;;;22.16;36.94
43217;BME280;60511;42.686;23.300;2023-02-22T06:38:07;94707.69;;;22.14;34.61
43217;BME280;60511;42.686;23.300;2023-02-22T06:40:08;94726.22;;;22.28;36.21
43217;BME280;60511;42.686;23.300;2023-02-22T06:42:10;94697.25;;;22.13;35.70
43217;BME280;60511;42.686;23.300;2023-02-22T06:44:11;94747.06;;;22.43;35.02
43217;BME280;60511;42.686;23.300;2023-02-22T06:46:12;94753.34;;;22.48;34.58
43217;BME280;60511;42.686;23.300;2023-02-22T06:48:13;94733.91;;;22.42;34.61
43217;BME280;60511;42.686;23.300;2023-02-22T06:50:20;94753.44;;;22.51;34.74
43217;BME280;60511;42.686;23.300;2023-02-22T06:52:21;94754.75;;;22.57;34.65
43217;BME280;60511;42.686;23.300;2023-02-22T06:54:22;94730.44;;;22.41;34.07
43217;BME280;60511;42.686;23.300;2023-02-22T06:56:22;94728.09;;;22.40;34.62
43217;BME280;60511;42.686;23.300;2023-02-22T06:58:22;94746.44;;;22.62;34.49
43217;BME280;60511;42.686;23.300;2023-02-22T07:00:24;94752.59;;;22.63;34.05
43217;BME280;60511;42.686;23.300;2023-02-22T07:02:25;94705.81;;;22.43;34.29
43217;BME280;60511;42.686;23.300;2023-02-22T07:04:25;94751.13;;;22.65;34.12
43217;BME280;60511;42.686;23.300;2023-02-22T07:06:25;94715.66;;;22.51;34.03
43217;BME280;60511;42.686;23.300;2023-02-22T07:08:26;94741.47;;;22.64;33.82
43217;BME280;60511;42.686;23.300;2023-02-22T07:10:28;94748.19;;;22.71;33.79
43217;BME280;60511;42.686;23.300;2023-02-22T07:12:29;94738.00;;;22.64;33.23
43217;BME280;60511;42.686;23.300;2023-02-22T07:14:29;94748.28;;;22.74;33.44
43217;BME280;60511;42.686;23.300;2023-02-22T07:16:30;94729.53;;;22.65;33.37
43217;BME280;60511;42.686;23.300;2023-02-22T07:18:30;94679.44;;;22.36;33.46
43217;BME280;60511;42.686;23.300;2023-02-22T07:20:30;94755.69;;;22.77;33.32
43217;BME280;60511;42.686;23.300;2023-02-22T07:22:31;94749.50;;;22.77;33.60
43217;BME280;60511;42.686;23.300;2023-02-22T07:24:31;94741.50;;;22.80;33.72
43217;BME280;60511;42.686;23.300;2023-02-22T07:26:40;94745.75;;;22.81;33.30
43217;BME280;60511;42.686;23.300;2023-02-22T07:28:40;94751.94;;;22.82;32.93
43217;BME280;60511;42.686;23.300;2023-02-22T07:30:41;94728.09;;;22.68;33.25
43217;BME280;60511;42.686;23.300;2023-02-22T07:32:42;94745.53;;;22.86;33.01
43217;BME280;60511;42.686;23.300;2023-02-22T07:34:42;94747.78;;;22.84;32.94
43217;BME280;60511;42.686;23.300;2023-02-22T07:36:43;94747.41;;;22.86;32.94
43217;BME280;60511;42.686;23.300;2023-02-22T07:38:44;94737.44;;;22.86;33.03
43217;BME280;60511;42.686;23.300;2023-02-22T07:40:45;94741.34;;;22.89;32.92
43217;BME280;60511;42.686;23.300;2023-02-22T07:42:56;94726.53;;;22.83;32.92
43217;BME280;60511;42.686;23.300;2023-02-22T07:44:57;94730.22;;;22.91;32.91
43217;BME280;60511;42.686;23.300;2023-02-22T07:46:57;94686.38;;;22.65;32.65
43217;BME280;60511;42.686;23.300;2023-02-22T07:48:58;94698.47;;;22.72;32.64
43217;BME280;60511;42.686;23.300;2023-02-22T07:50:58;94726.97;;;22.85;32.86
43217;BME280;60511;42.686;23.300;2023-02-22T07:53:02;94680.03;;;22.58;32.82
43217;BME280;60511;42.686;23.300;2023-02-22T07:55:03;94616.91;;;22.18;32.91
43217;BME280;60511;42.686;23.300;2023-02-22T07:57:03;94743.09;;;22.97;33.39
43217;BME280;60511;42.686;23.300;2023-02-22T07:59:04;94645.25;;;22.40;32.71
43217;BME280;60511;42.686;23.300;2023-02-22T08:01:04;94724.44;;;22.92;32.82
43217;BME280;60511;42.686;23.300;2023-02-22T08:03:08;94738.47;;;22.98;33.25
43217;BME280;60511;42.686;23.300;2023-02-22T08:05:10;94733.19;;;23.01;32.96
43217;BME280;60511;42.686;23.300;2023-02-22T08:07:10;94676.81;;;22.68;32.27
43217;BME280;60511;42.686;23.300;2023-02-22T08:09:11;94750.63;;;23.04;32.61
43217;BME280;60511;42.686;23.300;2023-02-22T08:11:11;94696.94;;;22.86;32.44
43217;BME280;60511;42.686;23.300;2023-02-22T08:13:12;94716.88;;;22.98;32.61
43217;BME280;60511;42.686;23.300;2023-02-22T08:15:22;94721.16;;;22.99;32.93
43217;BME280;60511;42.686;23.300;2023-02-22T08:17:23;94693.38;;;22.82;32.85
43217;BME280;60511;42.686;23.300;2023-02-22T08:19:23;94734.06;;;23.05;32.21
43217;BME280;60511;42.686;23.300;2023-02-22T08:21:24;94701.63;;;22.90;32.40
43217;BME280;60511;42.686;23.300;2023-02-22T08:23:24;94728.34;;;23.07;32.69
43217;BME280;60511;42.686;23.300;2023-02-22T08:25:27;94723.28;;;23.05;32.99
43217;BME280;60511;42.686;23.300;2023-02-22T08:27:30;94716.66;;;23.03;32.37
43217;BME280;60511;42.686;23.300;2023-02-22T08:29:33;94719.72;;;23.01;32.25
43217;BME280;60511;42.686;23.300;2023-02-22T08:31:33;94695.13;;;22.91;32.54
43217;BME280;60511;42.686;23.300;2023-02-22T08:33:33;94707.75;;;23.02;32.02
43217;BME280;60511;42.686;23.300;2023-02-22T08:35:35;94717.69;;;23.14;32.05
43217;BME280;60511;42.686;23.300;2023-02-22T08:37:35;94714.66;;;23.16;31.95
43217;BME280;60511;42.686;23.300;2023-02-22T08:39:36;94724.31;;;23.17;31.86
43217;BME280;60511;42.686;23.300;2023-02-22T08:41:36;94715.88;;;23.18;31.97
43217;BME280;60511;42.686;23.300;2023-02-22T08:43:37;94698.63;;;23.07;32.22
43217;BME280;60511;42.686;23.300;2023-02-22T08:45:37;94708.13;;;23.17;31.39
43217;BME280;60511;42.686;23.300;2023-02-22T08:47:38;94654.09;;;22.85;31.77
43217;BME280;60511;42.686;23.300;2023-02-22T08:49:38;94711.53;;;23.14;31.60
43217;BME280;60511;42.686;23.300;2023-02-22T08:51:39;94715.63;;;23.23;31.87
43217;BME280;60511;42.686;23.300;2023-02-22T08:53:39;94693.06;;;23.16;31.49
43217;BME280;60511;42.686;23.300;2023-02-22T08:55:40;94690.69;;;23.14;31.56
43217;BME280;60511;42.686;23.300;2023-02-22T08:57:41;94643.13;;;22.78;31.75
43217;BME280;60511;42.686;23.300;2023-02-22T08:59:41;94701.06;;;23.12;31.62
43217;BME280;60511;42.686;23.300;2023-02-22T09:01:42;94703.00;;;23.27;31.75
43217;BME280;60511;42.686;23.300;2023-02-22T09:03:47;94698.28;;;23.24;31.63
43217;BME280;60511;42.686;23.300;2023-02-22T09:05:47;94715.00;;;23.30;31.97
43217;BME280;60511;42.686;23.300;2023-02-22T09:07:48;94706.28;;;23.21;31.36
43217;BME280;60511;42.686;23.300;2023-02-22T09:09:48;94710.03;;;23.32;31.38
43217;BME280;60511;42.686;23.300;2023-02-22T09:11:48;94649.31;;;22.94;31.90
43217;BME280;60511;42.686;23.300;2023-02-22T09:13:49;94710.38;;;23.31;31.90
43217;BME280;60511;42.686;23.300;2023-02-22T09:15:49;94539.03;;;22.29;31.52
43217;BME280;60511;42.686;23.300;2023-02-22T09:17:50;94681.38;;;23.27;31.64
43217;BME280;60511;42.686;23.300;2023-02-22T09:19:51;94687.47;;;23.24;31.15
43217;BME280;60511;42.686;23.300;2023-02-22T09:21:52;94655.44;;;23.07;31.39
43217;BME280;60511;42.686;23.300;2023-02-22T09:23:53;94696.53;;;23.32;31.01
43217;BME280;60511;42.686;23.300;2023-02-22T09:25:54;94688.69;;;23.27;31.09
43217;BME280;60511;42.686;23.300;2023-02-22T09:27:55;94650.81;;;23.08;31.70
43217;BME280;60511;42.686;23.300;2023-02-22T09:29:55;94664.13;;;23.16;31.26
43217;BME280;60511;42.686;23.300;2023-02-22T09:31:56;94673.63;;;23.26;31.72
43217;BME280;60511;42.686;23.300;2023-02-22T09:33:56;94605.34;;;22.78;31.11
43217;BME280;60511;42.686;23.300;2023-02-22T09:35:57;94640.63;;;23.01;31.50
43217;BME280;60511;42.686;23.300;2023-02-22T09:38:00;94656.31;;;23.11;31.80
43217;BME280;60511;42.686;23.300;2023-02-22T09:40:01;94676.00;;;23.27;31.21
43217;BME280;60511;42.686;23.300;2023-02-22T09:42:13;94693.94;;;23.36;31.74
43217;BME280;60511;42.686;23.300;2023-02-22T09:46:44;94693.13;;;23.35;31.69
43217;BME280;60511;42.686;23.300;2023-02-22T09:50:58;94678.50;;;23.36;31.97
43217;BME280;60511;42.686;23.300;2023-02-22T09:53:11;94672.31;;;23.36;31.71
43217;BME280;60511;42.686;23.300;2023-02-22T09:55:38;94668.31;;;23.30;31.72
43217;BME280;60511;42.686;23.300;2023-02-22T09:57:41;94665.69;;;23.33;31.75
43217;BME280;60511;42.686;23.300;2023-02-22T09:59:56;94682.31;;;23.35;31.86
43217;BME280;60511;42.686;23.300;2023-02-22T10:02:04;94675.03;;;23.36;31.75
43217;BME280;60511;42.686;23.300;2023-02-22T10:04:35;94669.63;;;23.36;31.61
43217;BME280;60511;42.686;23.300;2023-02-22T10:06:41;94596.81;;;22.92;31.50
43217;BME280;60511;42.686;23.300;2023-02-22T10:08:44;94668.03;;;23.35;31.66
43217;BME280;60511;42.686;23.300;2023-02-22T10:10:47;94657.50;;;23.30;31.67
43217;BME280;60511;42.686;23.300;2023-02-22T10:13:00;94651.28;;;22.50;29.49
43217;BME280;60511;42.686;23.300;2023-02-22T10:17:56;94650.94;;;21.95;28.38
43217;BME280;60511;42.686;23.300;2023-02-22T10:22:20;94644.63;;;22.03;28.06
43217;BME280;60511;42.686;23.300;2023-02-22T10:26:43;94615.22;;;21.98;27.31
43217;BME280;60511;42.686;23.300;2023-02-22T10:31:21;94631.59;;;22.21;27.22
43217;BME280;60511;42.686;23.300;2023-02-22T10:33:25;94623.31;;;22.26;26.93
43217;BME280;60511;42.686;23.300;2023-02-22T10:35:32;94632.91;;;22.11;26.64
43217;BME280;60511;42.686;23.300;2023-02-22T10:37:34;94578.22;;;21.54;26.57
43217;BME280;60511;42.686;23.300;2023-02-22T10:39:37;94615.84;;;21.79;26.72
43217;BME280;60511;42.686;23.300;2023-02-22T10:41:49;94601.06;;;22.01;27.19
43217;BME280;60511;42.686;23.300;2023-02-22T10:43:52;94439.38;;;21.28;27.38
43217;BME280;60511;42.686;23.300;2023-02-22T10:45:54;94580.22;;;22.14;27.11
43217;BME280;60511;42.686;23.300;2023-02-22T10:47:56;94582.59;;;21.87;26.44
43217;BME280;60511;42.686;23.300;2023-02-22T10:49:59;94598.19;;;21.81;26.22
43217;BME280;60511;42.686;23.300;2023-02-22T10:52:01;94597.13;;;21.70;26.57
43217;BME280;60511;42.686;23.300;2023-02-22T10:56:22;94526.28;;;21.70;26.36
43217;BME280;60511;42.686;23.300;2023-02-22T10:58:23;94569.28;;;21.94;26.15
43217;BME280;60511;42.686;23.300;2023-02-22T11:00:33;94587.66;;;22.04;26.40
43217;BME280;60511;42.686;23.300;2023-02-22T11:02:36;94540.34;;;21.91;26.61
43217;BME280;60511;42.686;23.300;2023-02-22T11:09:15;94583.34;;;22.44;26.93
43217;BME280;60511;42.686;23.300;2023-02-22T11:11:24;94574.97;;;22.33;25.83
43217;BME280;60511;42.686;23.300;2023-02-22T11:13:38;94531.44;;;22.03;25.64
43217;BME280;60511;42.686;23.300;2023-02-22T11:15:39;94553.34;;;22.17;25.92
43217;BME280;60511;42.686;23.300;2023-02-22T11:17:39;94536.31;;;22.13;26.26
43217;BME280;60511;42.686;23.300;2023-02-22T11:19:46;94553.75;;;22.32;25.98
43217;BME280;60511;42.686;23.300;2023-02-22T11:21:49;94531.59;;;22.10;25.41
43217;BME280;60511;42.686;23.300;2023-02-22T11:24:01;94550.47;;;22.10;25.19
43217;BME280;60511;42.686;23.300;2023-02-22T11:26:11;94559.81;;;21.84;24.92
43217;BME280;60511;42.686;23.300;2023-02-22T11:28:27;94546.34;;;21.84;24.83
43217;BME280;60511;42.686;23.300;2023-02-22T11:30:32;94520.84;;;21.82;25.01
43217;BME280;60511;42.686;23.300;2023-02-22T11:32:34;94522.72;;;21.65;24.59
43217;BME280;60511;42.686;23.300;2023-02-22T11:34:38;94536.94;;;21.94;24.79